Time;durP1;ratioP1;P1;durP2;ratioP2;P2;SDS_P1;SDS_P2;PMS_P1;PMS_P2;Temp;Humidity;BMP_temperature;BMP_pressure;BME280_temperature;BME280_humidity;BME280_pressure;Samples;Min_cycle;Max_cycle;Signal;HPM_P1;HPM_P2
2021/04/12 00:00:29;;;;;;;2.92;1.70;;;;;;;;;;5075126;28;20047;-62
2021/04/12 00:03:14;;;;;;;5.13;1.55;;;;;;;;;;5064982;28;20074;-62
2021/04/12 00:05:39;;;;;;;5.53;1.88;;;;;;;;;;5060838;28;20041;-62
2021/04/12 00:08:20;;;;;;;13.80;1.52;;;;;;;;;;5047240;28;20032;-62
2021/04/12 00:11:03;;;;;;;7.75;2.38;;;;;;;;;;5046004;28;20060;-62
2021/04/12 00:13:53;;;;;;;4.63;1.70;;;;;;;;;;5057368;28;20040;-62
2021/04/12 00:16:21;;;;;;;10.68;1.90;;;;;;;;;;5060660;28;20033;-61
2021/04/12 00:18:52;;;;;;;6.18;2.35;;;;;;;;;;5058261;28;20036;-61
2021/04/12 00:21:20;;;;;;;4.10;1.65;;;;;;;;;;5059386;28;20097;-61
2021/04/12 00:24:08;;;;;;;11.98;2.33;;;;;;;;;;5058202;28;20039;-60
2021/04/12 00:26:46;;;;;;;4.70;1.88;;;;;;;;;;5055270;28;20091;-61
2021/04/12 00:29:17;;;;;;;5.82;2.40;;;;;;;;;;5059639;28;20060;-61
2021/04/12 00:31:53;;;;;;;12.02;2.28;;;;;;;;;;5058384;28;20028;-60
2021/04/12 00:34:27;;;;;;;6.50;2.10;;;;;;;;;;5065738;28;20167;-61
2021/04/12 00:37:02;;;;;;;3.08;2.10;;;;;;;;;;5063094;28;20107;-61
2021/04/12 00:39:37;;;;;;;5.60;1.63;;;;;;;;;;5064473;28;20041;-60
2021/04/12 00:42:11;;;;;;;4.15;2.03;;;;;;;;;;5060442;28;20029;-60
2021/04/12 00:44:51;;;;;;;2.90;1.90;;;;;;;;;;5062611;28;22087;-61
2021/04/12 00:47:29;;;;;;;7.18;1.90;;;;;;;;;;5061139;28;20048;-61
2021/04/12 00:50:07;;;;;;;5.65;1.77;;;;;;;;;;5062733;28;20064;-60
2021/04/12 00:52:44;;;;;;;4.80;2.00;;;;;;;;;;5051478;28;20480;-60
2021/04/12 00:55:33;;;;;;;1.85;1.15;;;;;;;;;;5062646;28;20028;-60
2021/04/12 00:58:19;;;;;;;6.65;1.63;;;;;;;;;;5063536;28;22177;-60
2021/04/12 01:00:48;;;;;;;1.50;1.10;;;;;;;;;;5060654;28;20072;-60
2021/04/12 01:03:22;;;;;;;10.77;0.98;;;;;;;;;;5044120;28;20044;-61
2021/04/12 01:05:54;;;;;;;3.75;1.30;;;;;;;;;;5062441;28;20431;-61
2021/04/12 01:08:43;;;;;;;1.90;0.95;;;;;;;;;;5059686;28;20037;-60
2021/04/12 01:11:31;;;;;;;12.90;1.65;;;;;;;;;;5066977;28;20028;-60
2021/04/12 01:14:03;;;;;;;6.15;1.40;;;;;;;;;;5060920;28;20078;-60
2021/04/12 01:16:42;;;;;;;6.40;1.80;;;;;;;;;;5059487;28;20035;-60
2021/04/12 01:19:20;;;;;;;5.40;1.88;;;;;;;;;;5064798;28;20660;-60
2021/04/12 01:22:05;;;;;;;3.83;2.05;;;;;;;;;;5068061;28;20032;-60
2021/04/12 01:24:49;;;;;;;10.10;2.47;;;;;;;;;;5061730;28;20044;-59
2021/04/12 01:27:15;;;;;;;;;;;;;;;;;;5062201;28;20109;-60
2021/04/12 01:29:59;;;;;;;1.80;1.48;;;;;;;;;;5063465;28;19924;-59
2021/04/12 01:32:46;;;;;;;2.03;1.42;;;;;;;;;;5060737;28;20111;-60
2021/04/12 01:35:27;;;;;;;3.50;1.85;;;;;;;;;;5059016;28;20056;-59
2021/04/12 01:37:58;;;;;;;6.35;2.67;;;;;;;;;;5060062;28;20032;-59
2021/04/12 01:40:39;;;;;;;3.50;2.15;;;;;;;;;;5061810;28;20035;-59
2021/04/12 01:43:07;;;;;;;4.13;1.80;;;;;;;;;;5077053;27;20037;-59
2021/04/12 01:45:51;;;;;;;10.45;1.70;;;;;;;;;;5060555;28;20028;-59
2021/04/12 01:48:35;;;;;;;2.80;2.10;;;;;;;;;;5061568;28;20086;-58
2021/04/12 01:51:15;;;;;;;5.00;2.53;;;;;;;;;;5063364;28;20149;-59
2021/04/12 01:53:40;;;;;;;3.90;2.17;;;;;;;;;;5059731;28;20039;-59
2021/04/12 01:56:30;;;;;;;6.57;2.15;;;;;;;;;;5062657;28;20082;-59
2021/04/12 01:59:18;;;;;;;3.60;1.38;;;;;;;;;;5062145;28;20084;-59
2021/04/12 02:02:02;;;;;;;8.00;1.80;;;;;;;;;;5048846;28;20032;-59
2021/04/12 02:04:38;;;;;;;3.35;2.20;;;;;;;;;;5060512;28;20933;-59
2021/04/12 02:07:27;;;;;;;7.10;1.70;;;;;;;;;;5061085;28;20048;-59
2021/04/12 02:09:59;;;;;;;3.50;2.00;;;;;;;;;;5069244;28;20445;-59
2021/04/12 02:12:28;;;;;;;4.22;1.60;;;;;;;;;;5050032;28;20020;-59
2021/04/12 02:15:07;;;;;;;8.23;1.42;;;;;;;;;;5063925;28;20039;-59
2021/04/12 02:17:51;;;;;;;1.80;1.55;;;;;;;;;;5046633;28;22123;-58
2021/04/12 02:20:37;;;;;;;9.05;2.95;;;;;;;;;;5061923;28;20020;-58
2021/04/12 02:23:15;;;;;;;2.42;1.58;;;;;;;;;;5064646;28;20028;-59
2021/04/12 02:26:05;;;;;;;2.75;1.33;;;;;;;;;;5045963;28;20123;-60
2021/04/12 02:28:49;;;;;;;4.80;1.88;;;;;;;;;;5044190;28;20035;-58
2021/04/12 02:31:39;;;;;;;2.47;1.70;;;;;;;;;;5060397;28;20035;-58
2021/04/12 02:34:09;;;;;;;3.00;1.83;;;;;;;;;;5060997;28;20036;-60
2021/04/12 02:36:45;;;;;;;3.00;1.92;;;;;;;;;;5067882;28;20047;-62
2021/04/12 02:39:38;;;;;;;10.75;2.10;;;;;;;;;;5066066;28;20036;-59
2021/04/12 02:42:11;;;;;;;9.70;1.65;;;;;;;;;;5061395;28;20028;-59
2021/04/12 02:45:02;;;;;;;3.10;1.83;;;;;;;;;;5057983;28;20154;-58
2021/04/12 02:47:49;;;;;;;15.35;2.63;;;;;;;;;;5061935;28;20030;-59
2021/04/12 02:50:33;;;;;;;2.50;1.33;;;;;;;;;;5062598;28;20085;-58
2021/04/12 02:52:59;;;;;;;7.00;2.20;;;;;;;;;;5058001;28;20042;-58
2021/04/12 02:55:27;;;;;;;4.05;1.80;;;;;;;;;;5059411;28;20791;-59
2021/04/12 02:57:59;;;;;;;17.88;2.17;;;;;;;;;;5059409;28;20024;-59
2021/04/12 03:00:35;;;;;;;1.90;1.63;;;;;;;;;;5061285;28;20043;-58
2021/04/12 03:03:20;;;;;;;9.50;1.73;;;;;;;;;;5060085;28;20047;-58
2021/04/12 03:05:51;;;;;;;9.77;2.08;;;;;;;;;;5064919;28;20671;-58
2021/04/12 03:08:26;;;;;;;9.15;1.60;;;;;;;;;;5060316;28;20037;-59
2021/04/12 03:11:14;;;;;;;2.20;1.67;;;;;;;;;;5060434;28;20031;-58
2021/04/12 03:13:55;;;;;;;5.32;1.92;;;;;;;;;;5061977;28;20197;-59
2021/04/12 03:16:29;;;;;;;3.88;2.10;;;;;;;;;;5060823;28;20047;-59
2021/04/12 03:19:22;;;;;;;2.20;1.25;;;;;;;;;;5061707;28;20028;-60
2021/04/12 03:22:08;;;;;;;6.30;2.05;;;;;;;;;;5060474;28;20032;-60
2021/04/12 03:24:48;;;;;;;10.38;1.60;;;;;;;;;;5059971;28;20468;-58
2021/04/12 03:27:23;;;;;;;7.15;1.75;;;;;;;;;;5060248;28;21973;-59
2021/04/12 03:30:07;;;;;;;5.63;1.70;;;;;;;;;;5060767;28;20530;-59
2021/04/12 03:32:51;;;;;;;6.82;2.47;;;;;;;;;;5061519;28;20028;-58
2021/04/12 03:35:28;;;;;;;4.50;1.98;;;;;;;;;;5060797;28;21921;-58
2021/04/12 03:37:57;;;;;;;3.75;1.95;;;;;;;;;;5058692;28;20039;-59
2021/04/12 03:40:25;;;;;;;5.43;2.17;;;;;;;;;;5060658;28;20613;-60
2021/04/12 03:43:09;;;;;;;6.88;1.55;;;;;;;;;;5061526;28;20036;-59
2021/04/12 03:45:35;;;;;;;3.00;1.90;;;;;;;;;;5061255;28;20136;-59
2021/04/12 03:48:16;;;;;;;6.10;1.90;;;;;;;;;;5067307;28;20816;-59
2021/04/12 03:50:50;;;;;;;6.05;1.50;;;;;;;;;;5061287;28;20165;-60
2021/04/12 03:53:28;;;;;;;7.60;1.88;;;;;;;;;;5059643;28;20028;-59
2021/04/12 03:56:16;;;;;;;2.78;1.83;;;;;;;;;;5048238;28;20043;-59
2021/04/12 03:58:44;;;;;;;4.28;2.25;;;;;;;;;;5065096;28;20035;-58
2021/04/12 04:01:25;;;;;;;3.80;1.98;;;;;;;;;;5061793;28;20037;-59
2021/04/12 04:03:50;;;;;;;7.38;1.67;;;;;;;;;;5044619;28;20047;-59
2021/04/12 04:06:19;;;;;;;2.75;1.95;;;;;;;;;;5059166;28;20058;-59
2021/04/12 04:09:06;;;;;;;5.28;2.10;;;;;;;;;;5058585;28;20028;-59
2021/04/12 04:11:43;;;;;;;5.93;1.85;;;;;;;;;;5062009;28;20031;-59
2021/04/12 04:14:09;;;;;;;3.63;2.33;;;;;;;;;;5063276;28;20099;-59
2021/04/12 04:16:38;;;;;;;1.95;1.27;;;;;;;;;;5064330;28;20028;-60
2021/04/12 04:19:11;;;;;;;2.75;2.13;;;;;;;;;;5066019;28;22090;-60
2021/04/12 04:21:40;;;;;;;6.50;1.73;;;;;;;;;;5064114;28;20039;-59
2021/04/12 04:24:12;;;;;;;8.10;2.08;;;;;;;;;;5060835;28;20032;-59
2021/04/12 04:27:09;;;;;;;5.85;2.15;;;;;;;;;;5061958;28;20025;-59
2021/04/12 04:29:49;;;;;;;1.92;1.70;;;;;;;;;;4995443;28;20091;-59
2021/04/12 04:32:36;;;;;;;13.65;1.60;;;;;;;;;;5063390;28;20047;-59
2021/04/12 04:35:19;;;;;;;7.45;1.98;;;;;;;;;;5060067;28;20039;-61
2021/04/12 04:37:58;;;;;;;3.10;1.58;;;;;;;;;;5052762;28;20047;-59
2021/04/12 04:40:34;;;;;;;7.03;1.80;;;;;;;;;;5061819;28;20042;-59
2021/04/12 04:43:13;;;;;;;11.82;1.77;;;;;;;;;;5065467;28;20036;-60
2021/04/12 04:45:59;;;;;;;12.95;2.05;;;;;;;;;;5058804;28;20033;-60
2021/04/12 04:48:40;;;;;;;2.10;1.13;;;;;;;;;;5062085;28;20049;-59
2021/04/12 04:51:12;;;;;;;3.88;1.83;;;;;;;;;;5051328;28;20032;-60
2021/04/12 04:53:41;;;;;;;3.17;1.35;;;;;;;;;;5062773;28;20029;-60
2021/04/12 04:56:07;;;;;;;4.88;1.17;;;;;;;;;;5060277;28;20032;-60
2021/04/12 04:58:32;;;;;;;1.95;1.70;;;;;;;;;;5044621;28;20039;-59
2021/04/12 05:01:09;;;;;;;5.97;1.80;;;;;;;;;;5068323;28;20034;-60
2021/04/12 05:03:53;;;;;;;3.40;1.45;;;;;;;;;;5060463;28;20024;-60
2021/04/12 05:06:24;;;;;;;10.55;1.60;;;;;;;;;;5059969;28;20050;-60
2021/04/12 05:08:52;;;;;;;13.60;2.08;;;;;;;;;;5061238;28;20028;-60
2021/04/12 05:11:36;;;;;;;2.80;1.40;;;;;;;;;;5066418;28;20057;-59
2021/04/12 05:14:13;;;;;;;2.10;1.02;;;;;;;;;;5057541;28;20036;-60
2021/04/12 05:16:45;;;;;;;3.92;1.25;;;;;;;;;;5063804;28;20103;-59
2021/04/12 05:19:14;;;;;;;4.93;1.15;;;;;;;;;;5060985;28;20031;-59
2021/04/12 05:21:54;;;;;;;3.60;1.30;;;;;;;;;;5059543;28;20040;-60
2021/04/12 05:24:40;;;;;;;2.20;0.98;;;;;;;;;;5061676;28;21994;-59
2021/04/12 05:27:06;;;;;;;1.48;0.88;;;;;;;;;;5042216;28;20036;-59
2021/04/12 05:29:31;;;;;;;4.70;0.95;;;;;;;;;;5044818;28;20036;-59
2021/04/12 05:32:04;;;;;;;2.83;1.38;;;;;;;;;;5061095;28;20036;-60
2021/04/12 05:34:48;;;;;;;2.60;1.10;;;;;;;;;;5061947;28;20036;-59
2021/04/12 05:37:14;;;;;;;2.35;0.98;;;;;;;;;;5058494;28;20039;-59
2021/04/12 05:39:54;;;;;;;0.90;0.77;;;;;;;;;;5069054;28;20035;-60
2021/04/12 05:42:20;;;;;;;6.15;0.95;;;;;;;;;;5060422;28;20164;-64
2021/04/12 05:44:51;;;;;;;4.45;0.90;;;;;;;;;;5061168;28;20607;-60
2021/04/12 05:47:19;;;;;;;1.75;0.90;;;;;;;;;;5060377;28;20027;-60
2021/04/12 05:49:56;;;;;;;2.75;0.30;;;;;;;;;;5069746;28;20383;-59
2021/04/12 05:52:28;;;;;;;1.45;0.70;;;;;;;;;;5061958;28;20115;-60
2021/04/12 05:55:08;;;;;;;6.28;1.05;;;;;;;;;;5061937;28;20056;-60
2021/04/12 05:57:49;;;;;;;1.48;0.90;;;;;;;;;;5064003;28;20579;-61
2021/04/12 06:00:36;;;;;;;1.08;0.70;;;;;;;;;;5058490;28;20043;-60
2021/04/12 06:03:33;;;;;;;1.00;0.83;;;;;;;;;;5059696;28;20036;-58
2021/04/12 06:06:14;;;;;;;2.92;0.80;;;;;;;;;;5012868;28;20040;-59
2021/04/12 06:08:49;;;;;;;2.83;1.00;;;;;;;;;;5062952;28;20129;-59
2021/04/12 06:11:18;;;;;;;3.78;0.68;;;;;;;;;;5062317;28;20036;-59
2021/04/12 06:14:03;;;;;;;2.35;0.80;;;;;;;;;;5060499;28;20028;-59
2021/04/12 06:16:34;;;;;;;7.18;0.80;;;;;;;;;;5049171;28;20039;-59
2021/04/12 06:19:15;;;;;;;0.93;0.63;;;;;;;;;;5067078;28;20068;-58
2021/04/12 06:21:46;;;;;;;4.53;1.27;;;;;;;;;;5066233;28;20036;-59
2021/04/12 06:24:26;;;;;;;1.38;0.50;;;;;;;;;;5063216;28;20176;-58
2021/04/12 06:27:13;;;;;;;1.73;0.70;;;;;;;;;;5061181;28;20032;-59
2021/04/12 06:29:45;;;;;;;3.42;0.80;;;;;;;;;;5060159;28;20039;-58
2021/04/12 06:32:17;;;;;;;1.55;0.63;;;;;;;;;;5060349;28;20036;-58
2021/04/12 06:35:01;;;;;;;3.13;0.88;;;;;;;;;;5060128;28;20033;-58
2021/04/12 06:37:46;;;;;;;0.63;0.50;;;;;;;;;;5058952;28;20115;-58
2021/04/12 06:40:20;;;;;;;2.90;0.68;;;;;;;;;;5059262;28;20066;-58
2021/04/12 06:42:46;;;;;;;;;;;;;;;;;;5061715;28;20143;-58
2021/04/12 06:45:32;;;;;;;2.47;0.43;;;;;;;;;;5066736;28;20279;-58
2021/04/12 06:48:03;;;;;;;3.55;0.60;;;;;;;;;;5061432;28;20044;-58
2021/04/12 06:50:37;;;;;;;1.25;0.40;;;;;;;;;;5063029;28;21480;-58
2021/04/12 06:53:17;;;;;;;4.32;0.75;;;;;;;;;;5058624;28;20066;-58
2021/04/12 06:55:55;;;;;;;2.63;0.60;;;;;;;;;;5061072;28;20028;-58
2021/04/12 06:58:23;;;;;;;1.23;0.60;;;;;;;;;;5059883;28;20089;-58
2021/04/12 07:01:07;;;;;;;1.85;0.40;;;;;;;;;;5059868;28;20032;-58
2021/04/12 07:03:33;;;;;;;6.50;0.65;;;;;;;;;;5062082;28;20805;-58
2021/04/12 07:06:08;;;;;;;4.72;0.60;;;;;;;;;;5065452;28;20148;-58
2021/04/12 07:08:49;;;;;;;5.90;0.70;;;;;;;;;;5061094;28;20023;-58
2021/04/12 07:11:18;;;;;;;1.45;0.75;;;;;;;;;;5059604;28;20120;-58
2021/04/12 07:13:49;;;;;;;3.75;0.75;;;;;;;;;;5060400;28;20155;-57
2021/04/12 07:16:36;;;;;;;4.80;1.05;;;;;;;;;;5066420;28;20485;-57
2021/04/12 07:19:20;;;;;;;4.30;0.90;;;;;;;;;;5053457;28;20028;-59
2021/04/12 07:22:07;;;;;;;2.08;0.82;;;;;;;;;;5059457;28;20027;-59
2021/04/12 07:24:34;;;;;;;7.47;0.82;;;;;;;;;;5065141;28;20075;-59
2021/04/12 07:27:16;;;;;;;1.73;0.60;;;;;;;;;;5059503;28;20028;-58
2021/04/12 07:29:47;;;;;;;2.47;0.80;;;;;;;;;;5060951;28;20024;-60
2021/04/12 07:32:16;;;;;;;5.90;0.57;;;;;;;;;;5059749;28;20102;-59
2021/04/12 07:34:42;;;;;;;4.43;1.02;;;;;;;;;;5060866;28;20032;-60
2021/04/12 07:37:28;;;;;;;2.03;0.50;;;;;;;;;;5059175;28;20469;-59
2021/04/12 07:39:59;;;;;;;4.28;0.68;;;;;;;;;;5058890;28;20043;-61
2021/04/12 07:42:45;;;;;;;6.07;0.80;;;;;;;;;;5059535;28;20043;-60
2021/04/12 07:45:22;;;;;;;3.38;0.60;;;;;;;;;;5062188;28;20155;-60
2021/04/12 07:48:06;;;;;;;4.30;0.68;;;;;;;;;;5060911;28;20066;-61
2021/04/12 07:50:51;;;;;;;2.65;0.60;;;;;;;;;;5063372;28;20197;-60
2021/04/12 07:53:32;;;;;;;2.22;0.50;;;;;;;;;;5062791;28;20033;-60
2021/04/12 07:55:58;;;;;;;3.75;0.70;;;;;;;;;;5064224;28;20048;-61
2021/04/12 07:58:23;;;;;;;3.10;0.55;;;;;;;;;;5061263;28;20031;-61
2021/04/12 08:01:13;;;;;;;4.30;0.45;;;;;;;;;;5062062;28;20060;-62
2021/04/12 08:04:01;;;;;;;1.75;0.35;;;;;;;;;;5063944;28;20047;-61
2021/04/12 08:06:27;;;;;;;6.38;0.65;;;;;;;;;;5063018;28;20085;-61
2021/04/12 08:08:58;;;;;;;1.80;0.38;;;;;;;;;;5062636;28;20488;-61
2021/04/12 08:11:43;;;;;;;5.95;0.43;;;;;;;;;;5060416;28;20031;-61
2021/04/12 08:14:11;;;;;;;1.80;0.40;;;;;;;;;;5062564;28;20044;-61
2021/04/12 08:17:01;;;;;;;3.15;0.40;;;;;;;;;;5062567;28;22218;-63
2021/04/12 08:19:26;;;;;;;1.15;0.45;;;;;;;;;;5062022;28;20070;-61
2021/04/12 08:21:57;;;;;;;1.95;0.68;;;;;;;;;;5065193;28;20146;-61
2021/04/12 08:24:32;;;;;;;2.22;0.60;;;;;;;;;;5062144;28;20119;-61
2021/04/12 08:27:00;;;;;;;1.75;0.20;;;;;;;;;;5062067;28;20070;-60
2021/04/12 08:29:44;;;;;;;2.72;0.50;;;;;;;;;;5062629;28;20114;-60
2021/04/12 08:32:28;;;;;;;3.88;0.50;;;;;;;;;;5061220;28;20043;-60
2021/04/12 08:35:09;;;;;;;2.47;0.35;;;;;;;;;;5061971;28;20043;-62
2021/04/12 08:37:56;;;;;;;2.25;0.40;;;;;;;;;;5059519;28;20408;-62
2021/04/12 08:40:54;;;;;;;2.83;0.40;;;;;;;;;;5063871;28;20121;-60
2021/04/12 08:43:34;;;;;;;4.03;0.40;;;;;;;;;;5031780;28;20047;-59
2021/04/12 08:46:29;;;;;;;3.00;0.40;;;;;;;;;;5050210;28;20122;-60
2021/04/12 08:48:57;;;;;;;1.33;0.40;;;;;;;;;;5031654;28;20044;-59
2021/04/12 08:51:22;;;;;;;1.75;0.32;;;;;;;;;;5060868;28;20051;-59
2021/04/12 08:54:01;;;;;;;0.98;0.50;;;;;;;;;;5062421;28;20062;-60
2021/04/12 08:56:43;;;;;;;4.15;0.63;;;;;;;;;;5059794;28;21088;-60
2021/04/12 08:59:21;;;;;;;1.67;0.40;;;;;;;;;;5061406;28;22162;-60
2021/04/12 09:01:58;;;;;;;3.10;0.47;;;;;;;;;;5060490;28;20552;-60
2021/04/12 09:04:50;;;;;;;2.17;0.50;;;;;;;;;;5063672;28;20036;-61
2021/04/12 09:07:16;;;;;;;1.75;0.70;;;;;;;;;;5036829;28;20713;-62
2021/04/12 09:10:02;;;;;;;0.47;0.47;;;;;;;;;;5061424;28;20051;-61
2021/04/12 09:12:47;;;;;;;0.70;0.38;;;;;;;;;;5059372;28;20055;-61
2021/04/12 09:15:22;;;;;;;3.17;0.60;;;;;;;;;;5067065;28;20151;-61
2021/04/12 09:17:57;;;;;;;1.13;0.40;;;;;;;;;;5060017;28;20039;-62
2021/04/12 09:20:41;;;;;;;0.80;0.60;;;;;;;;;;5063045;28;20041;-61
2021/04/12 09:23:28;;;;;;;4.18;1.13;;;;;;;;;;5068417;28;21258;-62
2021/04/12 09:26:32;;;;;;;7.32;1.02;;;;;;;;;;5049291;28;20032;-63
2021/04/12 09:29:14;;;;;;;2.85;0.70;;;;;;;;;;5039535;28;20033;-62
2021/04/12 09:31:45;;;;;;;5.40;0.55;;;;;;;;;;5039659;28;20029;-62
2021/04/12 09:34:14;;;;;;;5.63;0.70;;;;;;;;;;5050917;28;20491;-61
2021/04/12 09:36:42;;;;;;;3.47;0.85;;;;;;;;;;5062979;28;20123;-60
2021/04/12 09:39:24;;;;;;;1.25;0.40;;;;;;;;;;5057122;28;20032;-63
2021/04/12 09:41:49;;;;;;;3.35;0.52;;;;;;;;;;5049196;28;20041;-62
2021/04/12 09:44:27;;;;;;;2.33;0.82;;;;;;;;;;5063445;28;21354;-62
2021/04/12 09:47:06;;;;;;;3.33;0.60;;;;;;;;;;5048534;28;20043;-62
2021/04/12 09:49:43;;;;;;;1.33;0.30;;;;;;;;;;5061812;28;20051;-62
2021/04/12 09:52:10;;;;;;;1.10;0.35;;;;;;;;;;5061199;28;20035;-61
2021/04/12 09:55:02;;;;;;;3.45;0.50;;;;;;;;;;5065849;28;20072;-62
2021/04/12 09:57:27;;;;;;;0.63;0.52;;;;;;;;;;5064455;28;20063;-60
2021/04/12 10:00:03;;;;;;;2.28;0.75;;;;;;;;;;5069094;28;20487;-62
2021/04/12 10:02:34;;;;;;;5.25;0.88;;;;;;;;;;5059800;28;20028;-62
2021/04/12 10:05:12;;;;;;;1.50;0.50;;;;;;;;;;5059583;28;20027;-60
2021/04/12 10:07:40;;;;;;;4.47;0.88;;;;;;;;;;5061918;28;20535;-61
2021/04/12 10:10:25;;;;;;;1.50;0.50;;;;;;;;;;5061368;28;20982;-62
2021/04/12 10:13:16;;;;;;;0.32;0.15;;;;;;;;;;5060982;28;20939;-62
2021/04/12 10:15:56;;;;;;;2.40;0.65;;;;;;;;;;5051038;28;20052;-59
2021/04/12 10:18:42;;;;;;;2.30;0.30;;;;;;;;;;5060066;28;20554;-59
2021/04/12 10:21:15;;;;;;;5.82;0.35;;;;;;;;;;5059915;28;20059;-57
2021/04/12 10:23:40;;;;;;;0.50;0.30;;;;;;;;;;5063084;28;20540;-59
2021/04/12 10:26:08;;;;;;;1.58;0.25;;;;;;;;;;5061141;28;20039;-59
2021/04/12 10:28:43;;;;;;;0.95;0.17;;;;;;;;;;5060755;28;20039;-58
2021/04/12 10:31:27;;;;;;;2.70;0.35;;;;;;;;;;5066446;28;20036;-59
2021/04/12 10:33:58;;;;;;;3.30;0.50;;;;;;;;;;5064609;28;20032;-59
2021/04/12 10:36:29;;;;;;;1.77;0.25;;;;;;;;;;5061203;28;20036;-60
2021/04/12 10:39:02;;;;;;;1.35;0.30;;;;;;;;;;5061388;28;20057;-59
2021/04/12 10:41:27;;;;;;;1.75;0.30;;;;;;;;;;5048442;28;20032;-58
2021/04/12 10:44:08;;;;;;;1.52;0.30;;;;;;;;;;5056532;28;20086;-57
2021/04/12 10:46:34;;;;;;;0.52;0.20;;;;;;;;;;5061449;28;20432;-58
2021/04/12 10:49:15;;;;;;;2.67;0.55;;;;;;;;;;5061024;28;20090;-58
2021/04/12 10:51:48;;;;;;;7.75;0.43;;;;;;;;;;5054601;28;20056;-58
2021/04/12 10:54:37;;;;;;;0.77;0.10;;;;;;;;;;5059479;28;20058;-58
2021/04/12 10:57:21;;;;;;;1.73;0.63;;;;;;;;;;5058309;28;20158;-58
2021/04/12 11:00:02;;;;;;;0.60;0.23;;;;;;;;;;5061055;28;20033;-58
2021/04/12 11:02:47;;;;;;;1.13;0.32;;;;;;;;;;5057345;28;20036;-58
2021/04/12 11:05:17;;;;;;;1.55;0.35;;;;;;;;;;5065620;28;20035;-58
2021/04/12 11:08:06;;;;;;;0.20;0.17;;;;;;;;;;5057376;28;20062;-58
2021/04/12 11:10:44;;;;;;;1.65;0.30;;;;;;;;;;5060276;28;20126;-58
2021/04/12 11:13:22;;;;;;;1.73;0.30;;;;;;;;;;5060230;28;20086;-58
2021/04/12 11:15:58;;;;;;;0.50;0.20;;;;;;;;;;5042460;28;20215;-58
2021/04/12 11:18:32;;;;;;;2.55;0.40;;;;;;;;;;5059143;28;21112;-60
2021/04/12 11:21:17;;;;;;;0.30;0.20;;;;;;;;;;5060532;28;20025;-59
2021/04/12 11:23:43;;;;;;;1.73;1.00;;;;;;;;;;5059856;28;20085;-60
2021/04/12 11:26:22;;;;;;;1.02;0.13;;;;;;;;;;5059525;28;20043;-58
2021/04/12 11:28:54;;;;;;;1.65;0.10;;;;;;;;;;5064816;28;20039;-59
2021/04/12 11:31:19;;;;;;;0.30;0.08;;;;;;;;;;5049579;28;20154;-60
2021/04/12 11:34:06;;;;;;;1.20;0.30;;;;;;;;;;5060083;28;20031;-59
2021/04/12 11:36:42;;;;;;;2.72;0.57;;;;;;;;;;5057164;28;20686;-59
2021/04/12 11:39:12;;;;;;;2.65;0.30;;;;;;;;;;5061542;28;20074;-58
2021/04/12 11:41:43;;;;;;;1.45;0.55;;;;;;;;;;5058083;28;20087;-58
2021/04/12 11:44:11;;;;;;;6.82;1.08;;;;;;;;;;5060699;28;20034;-58
2021/04/12 11:46:39;;;;;;;2.35;0.85;;;;;;;;;;5059073;28;20036;-58
2021/04/12 11:49:13;;;;;;;0.80;0.60;;;;;;;;;;5059945;28;20051;-58
2021/04/12 11:51:48;;;;;;;1.35;0.82;;;;;;;;;;5060120;28;20846;-59
2021/04/12 11:54:17;;;;;;;2.70;0.70;;;;;;;;;;5057903;28;20089;-59
2021/04/12 11:56:52;;;;;;;3.67;0.70;;;;;;;;;;5058112;28;22041;-58
2021/04/12 11:59:19;;;;;;;1.13;0.40;;;;;;;;;;5060717;28;20020;-58
2021/04/12 12:01:55;;;;;;;4.30;0.50;;;;;;;;;;5046490;28;20024;-58
2021/04/12 12:04:39;;;;;;;4.65;0.50;;;;;;;;;;5055826;28;20415;-59
2021/04/12 12:07:16;;;;;;;1.45;0.55;;;;;;;;;;5058442;28;20047;-58
2021/04/12 12:09:47;;;;;;;1.80;0.13;;;;;;;;;;5064825;28;20036;-59
2021/04/12 12:12:36;;;;;;;1.30;0.35;;;;;;;;;;5057537;28;20036;-59
2021/04/12 12:15:12;;;;;;;1.58;0.63;;;;;;;;;;5060541;28;20030;-59
2021/04/12 12:17:44;;;;;;;0.68;0.40;;;;;;;;;;5056699;28;20036;-59
2021/04/12 12:20:10;;;;;;;5.35;0.40;;;;;;;;;;5061634;28;20039;-59
2021/04/12 12:22:45;;;;;;;2.40;0.30;;;;;;;;;;5058957;28;20722;-59
2021/04/12 12:25:24;;;;;;;0.40;0.30;;;;;;;;;;5060673;28;20111;-59
2021/04/12 12:27:59;;;;;;;1.80;0.13;;;;;;;;;;5060271;28;21020;-58
2021/04/12 12:30:43;;;;;;;2.22;0.22;;;;;;;;;;5059355;28;20036;-59
2021/04/12 12:33:19;;;;;;;4.22;0.35;;;;;;;;;;5060691;28;20028;-58
2021/04/12 12:35:47;;;;;;;2.20;0.32;;;;;;;;;;5060276;28;20968;-58
2021/04/12 12:38:16;;;;;;;0.82;0.32;;;;;;;;;;5062452;28;20028;-59
2021/04/12 12:40:45;;;;;;;2.33;0.47;;;;;;;;;;5062523;28;20047;-60
2021/04/12 12:43:15;;;;;;;2.83;0.38;;;;;;;;;;5060906;28;20530;-60
2021/04/12 12:45:42;;;;;;;1.77;0.20;;;;;;;;;;5064432;28;20036;-59
2021/04/12 12:48:19;;;;;;;1.23;0.30;;;;;;;;;;5062222;28;20044;-58
2021/04/12 12:50:56;;;;;;;3.78;0.30;;;;;;;;;;5046336;28;20027;-60
2021/04/12 12:53:27;;;;;;;2.42;0.30;;;;;;;;;;5063742;28;20107;-65
2021/04/12 12:55:55;;;;;;;2.15;0.40;;;;;;;;;;5061019;28;20046;-60
2021/04/12 12:58:23;;;;;;;0.38;0.13;;;;;;;;;;5052333;28;20070;-60
2021/04/12 13:00:51;;;;;;;3.97;0.30;;;;;;;;;;5062640;28;20043;-60
2021/04/12 13:03:29;;;;;;;1.25;0.20;;;;;;;;;;5062481;28;20028;-61
2021/04/12 13:05:58;;;;;;;2.72;0.40;;;;;;;;;;5061520;28;20620;-60
2021/04/12 13:08:35;;;;;;;0.90;0.10;;;;;;;;;;5061304;28;20092;-59
2021/04/12 13:11:01;;;;;;;2.65;0.28;;;;;;;;;;5044371;28;20132;-58
2021/04/12 13:13:29;;;;;;;1.83;0.20;;;;;;;;;;5060814;28;20046;-59
2021/04/12 13:16:11;;;;;;;3.35;0.30;;;;;;;;;;5059946;28;20077;-58
2021/04/12 13:18:41;;;;;;;1.00;0.20;;;;;;;;;;5060826;28;20655;-60
2021/04/12 13:21:07;;;;;;;2.53;0.68;;;;;;;;;;5062441;28;20036;-61
2021/04/12 13:23:39;;;;;;;0.88;0.30;;;;;;;;;;5061009;28;20602;-61
2021/04/12 13:26:25;;;;;;;2.33;0.30;;;;;;;;;;5057580;28;20039;-59
2021/04/12 13:28:53;;;;;;;2.97;0.40;;;;;;;;;;5043594;28;20027;-59
2021/04/12 13:31:31;;;;;;;2.03;0.28;;;;;;;;;;5060366;28;20028;-60
2021/04/12 13:34:01;;;;;;;1.77;0.20;;;;;;;;;;5062472;28;20035;-60
2021/04/12 13:36:36;;;;;;;0.70;0.20;;;;;;;;;;5050365;28;20029;-60
2021/04/12 13:39:24;;;;;;;1.60;0.20;;;;;;;;;;5061094;28;20081;-61
2021/04/12 13:41:51;;;;;;;1.70;0.35;;;;;;;;;;5060704;28;20028;-61
2021/04/12 13:44:21;;;;;;;0.98;0.28;;;;;;;;;;5059187;28;20046;-61
2021/04/12 13:47:01;;;;;;;2.00;0.60;;;;;;;;;;5062762;28;20036;-61
2021/04/12 13:49:44;;;;;;;2.47;0.43;;;;;;;;;;5065490;28;20060;-62
2021/04/12 13:52:11;;;;;;;1.80;0.30;;;;;;;;;;5048985;28;20040;-63
2021/04/12 13:54:49;;;;;;;1.13;0.40;;;;;;;;;;5061285;28;20276;-64
2021/04/12 13:57:21;;;;;;;4.00;0.30;;;;;;;;;;5061796;28;20066;-61
2021/04/12 13:59:51;;;;;;;0.60;0.13;;;;;;;;;;5062559;28;20567;-61
2021/04/12 14:02:28;;;;;;;0.17;0.15;;;;;;;;;;5063043;28;20037;-62
2021/04/12 14:04:57;;;;;;;2.17;0.20;;;;;;;;;;5061086;28;20037;-60
2021/04/12 14:07:41;;;;;;;1.27;0.20;;;;;;;;;;5060782;28;20082;-62
2021/04/12 14:10:24;;;;;;;0.73;0.10;;;;;;;;;;5061910;28;20115;-60
2021/04/12 14:13:02;;;;;;;1.85;0.50;;;;;;;;;;5060553;28;20031;-60
2021/04/12 14:15:56;;;;;;;2.55;0.60;;;;;;;;;;5044514;28;20084;-62
2021/04/12 14:18:37;;;;;;;4.50;0.50;;;;;;;;;;5045879;27;20036;-62
2021/04/12 14:21:06;;;;;;;1.08;0.40;;;;;;;;;;5059131;28;20043;-61
2021/04/12 14:23:39;;;;;;;3.15;0.35;;;;;;;;;;5059739;28;20044;-60
2021/04/12 14:26:13;;;;;;;3.85;0.43;;;;;;;;;;5059464;28;20126;-60
2021/04/12 14:28:48;;;;;;;5.20;0.40;;;;;;;;;;5065691;28;20031;-60
2021/04/12 14:31:14;;;;;;;;;;;;;;;;;;5043762;28;20042;-60
2021/04/12 14:33:44;;;;;;;2.90;0.40;;;;;;;;;;5060363;28;19916;-60
2021/04/12 14:36:14;;;;;;;1.15;0.22;;;;;;;;;;5058644;28;20024;-61
2021/04/12 14:38:46;;;;;;;2.22;0.30;;;;;;;;;;5058852;28;20763;-62
2021/04/12 14:41:24;;;;;;;0.95;0.40;;;;;;;;;;5058282;28;20032;-61
2021/04/12 14:44:03;;;;;;;2.58;0.40;;;;;;;;;;5057780;28;20031;-63
2021/04/12 14:46:41;;;;;;;3.05;0.70;;;;;;;;;;5062817;28;20476;-62
2021/04/12 14:49:10;;;;;;;0.63;0.20;;;;;;;;;;5056825;28;20047;-61
2021/04/12 14:51:38;;;;;;;0.95;0.20;;;;;;;;;;5059113;28;20043;-60
2021/04/12 14:54:19;;;;;;;3.20;0.45;;;;;;;;;;5060116;28;20107;-60
2021/04/12 14:56:51;;;;;;;2.25;0.30;;;;;;;;;;5057394;28;20048;-63
2021/04/12 14:59:30;;;;;;;1.80;0.22;;;;;;;;;;5060098;28;20161;-60
2021/04/12 15:01:59;;;;;;;0.65;0.50;;;;;;;;;;5059337;28;20143;-61
2021/04/12 15:04:30;;;;;;;0.98;0.15;;;;;;;;;;5061326;28;20146;-61
2021/04/12 15:07:06;;;;;;;0.40;0.20;;;;;;;;;;5060042;28;20028;-60
2021/04/12 15:09:53;;;;;;;4.07;0.40;;;;;;;;;;5061419;28;20028;-62
2021/04/12 15:12:25;;;;;;;5.07;0.38;;;;;;;;;;5060797;28;20040;-60
2021/04/12 15:15:08;;;;;;;1.65;0.22;;;;;;;;;;5063637;28;20063;-62
2021/04/12 15:17:48;;;;;;;1.55;0.10;;;;;;;;;;5059281;28;20028;-62
2021/04/12 15:20:16;;;;;;;2.97;0.22;;;;;;;;;;5058201;28;20629;-61
2021/04/12 15:22:55;;;;;;;3.63;0.40;;;;;;;;;;5057770;28;20081;-60
2021/04/12 15:25:23;;;;;;;0.63;0.30;;;;;;;;;;5057375;28;20059;-61
2021/04/12 15:28:08;;;;;;;1.65;0.32;;;;;;;;;;5058178;28;20035;-61
2021/04/12 15:30:35;;;;;;;5.55;0.45;;;;;;;;;;5055736;28;20044;-62
2021/04/12 15:33:22;;;;;;;3.58;0.38;;;;;;;;;;5053987;28;20040;-61
2021/04/12 15:35:57;;;;;;;7.70;0.90;;;;;;;;;;5057699;28;20082;-61
2021/04/12 15:38:26;;;;;;;2.75;0.30;;;;;;;;;;5059188;28;20047;-61